Time;durP1;ratioP1;P1;durP2;ratioP2;P2;SDS_P1;SDS_P2;PMS_P1;PMS_P2;Temp;Humidity;BMP_temperature;BMP_pressure;BME280_temperature;BME280_humidity;BME280_pressure;Samples;Min_cycle;Max_cycle;Signal;HPM_P1;HPM_P2
2023/01/25 00:01:32;;;;;;;27.33;16.00;;;0.10;99.90;;;;;;5030035;28;20224;-80
2023/01/25 00:03:59;;;;;;;22.70;15.53;;;0.10;99.90;;;;;;5038905;28;20779;-82
2023/01/25 00:06:25;;;;;;;24.37;15.47;;;0.10;99.90;;;;;;5039523;28;20679;-83
2023/01/25 00:08:54;;;;;;;25.10;17.30;;;0.10;99.90;;;;;;5035928;28;20271;-82
2023/01/25 00:11:21;;;;;;;28.30;17.43;;;0.10;99.90;;;;;;5034567;28;20332;-82
2023/01/25 00:13:48;;;;;;;29.33;17.63;;;0.10;99.90;;;;;;5036298;28;20229;-83
2023/01/25 00:16:16;;;;;;;28.73;17.70;;;0.10;99.90;;;;;;5038549;28;20219;-82
2023/01/25 00:18:42;;;;;;;31.37;18.47;;;0.10;99.90;;;;;;5036962;28;20222;-82
2023/01/25 00:21:13;;;;;;;30.20;18.23;;;0.10;99.90;;;;;;5037228;28;20773;-82
2023/01/25 00:23:40;;;;;;;26.17;17.87;;;0.10;99.90;;;;;;5038244;28;20234;-81
2023/01/25 00:26:07;;;;;;;28.83;18.60;;;0.10;99.90;;;;;;5038340;28;20230;-82
2023/01/25 00:28:33;;;;;;;27.10;17.73;;;0.00;99.90;;;;;;5039950;28;20885;-81
2023/01/25 00:31:00;;;;;;;30.30;19.07;;;0.00;99.90;;;;;;5022834;28;20231;-82
2023/01/25 00:33:40;;;;;;;30.10;19.70;;;0.00;99.90;;;;;;5040735;28;20700;-82
2023/01/25 00:36:40;;;;;;;29.30;18.77;;;0.00;99.90;;;;;;5027104;28;20224;-82
2023/01/25 00:39:10;;;;;;;29.67;19.53;;;-0.10;99.90;;;;;;5038443;28;20316;-83
2023/01/25 00:41:38;;;;;;;30.37;19.43;;;-0.10;99.90;;;;;;5040193;28;20220;-82
2023/01/25 00:44:05;;;;;;;30.17;18.37;;;-0.10;99.90;;;;;;5037618;28;20223;-82
2023/01/25 00:46:32;;;;;;;29.07;19.03;;;-0.10;99.90;;;;;;5036771;28;20981;-82
2023/01/25 00:49:00;;;;;;;32.37;18.53;;;-0.10;99.90;;;;;;5041360;28;20224;-81
2023/01/25 00:51:27;;;;;;;28.87;18.13;;;-0.10;99.90;;;;;;5039249;28;20293;-82
2023/01/25 00:53:54;;;;;;;27.50;17.33;;;-0.10;99.90;;;;;;5039306;28;20330;-82
2023/01/25 00:56:21;;;;;;;28.77;18.27;;;-0.10;99.90;;;;;;5031123;28;20282;-82
2023/01/25 00:58:47;;;;;;;26.03;16.67;;;-0.10;99.90;;;;;;5038421;28;20243;-83
2023/01/25 01:01:17;;;;;;;25.80;16.53;;;-0.10;99.90;;;;;;5031607;28;20745;-82
2023/01/25 01:03:44;;;;;;;25.00;16.47;;;-0.10;99.90;;;;;;5018816;28;20258;-82
2023/01/25 01:06:12;;;;;;;26.80;18.00;;;-0.20;99.90;;;;;;5024242;28;20235;-83
2023/01/25 01:08:40;;;;;;;27.33;17.17;;;-0.20;99.90;;;;;;5034527;28;20238;-82
2023/01/25 01:11:09;;;;;;;25.83;16.97;;;-0.20;99.90;;;;;;5020942;28;20304;-82
2023/01/25 01:13:36;;;;;;;25.83;16.80;;;-0.20;99.90;;;;;;5023836;28;20221;-83
2023/01/25 01:16:10;;;;;;;24.13;15.47;;;-0.20;99.90;;;;;;5023615;28;20282;-84
2023/01/25 01:18:38;;;;;;;24.97;16.70;;;-0.30;99.90;;;;;;5036673;28;20355;-83
2023/01/25 01:21:07;;;;;;;27.60;16.40;;;-0.30;99.90;;;;;;5035020;28;20239;-83
2023/01/25 01:23:36;;;;;;;23.37;15.70;;;-0.30;99.90;;;;;;5038379;28;20246;-83
2023/01/25 01:26:05;;;;;;;21.73;15.17;;;-0.30;99.90;;;;;;5020333;28;20228;-83
2023/01/25 01:28:38;;;;;;;21.23;13.97;;;-0.30;99.90;;;;;;5034665;28;20221;-83
2023/01/25 01:31:08;;;;;;;23.20;15.00;;;-0.20;99.90;;;;;;5037789;28;20225;-83
2023/01/25 01:33:37;;;;;;;24.70;14.97;;;-0.20;99.90;;;;;;5022451;28;20299;-81
2023/01/25 01:36:08;;;;;;;23.77;15.17;;;-0.30;99.90;;;;;;5035561;28;20311;-81
2023/01/25 01:38:36;;;;;;;22.87;15.17;;;-0.30;99.90;;;;;;5035366;28;20426;-82
2023/01/25 01:41:03;;;;;;;21.83;15.30;;;-0.30;99.90;;;;;;5036482;28;20233;-81
2023/01/25 01:43:30;;;;;;;21.90;14.13;;;-0.30;99.90;;;;;;5021098;28;20220;-81
2023/01/25 01:46:04;;;;;;;23.43;14.23;;;-0.20;99.90;;;;;;5019023;28;20892;-82
2023/01/25 01:48:38;;;;;;;23.33;14.87;;;-0.20;99.90;;;;;;5035447;28;20219;-81
2023/01/25 01:51:14;;;;;;;22.03;13.93;;;-0.20;99.90;;;;;;5033357;28;20219;-82
2023/01/25 01:53:48;;;;;;;21.30;13.93;;;-0.20;99.90;;;;;;5027708;28;20430;-81
2023/01/25 01:56:19;;;;;;;25.93;15.27;;;-0.20;99.90;;;;;;5035370;28;20306;-82
2023/01/25 01:58:48;;;;;;;22.53;13.80;;;-0.20;99.90;;;;;;5018459;28;20350;-81
2023/01/25 02:01:16;;;;;;;21.83;13.30;;;-0.20;99.90;;;;;;5034840;28;20298;-81
2023/01/25 02:03:44;;;;;;;21.47;13.30;;;-0.20;99.90;;;;;;5019685;28;20763;-81
2023/01/25 02:06:15;;;;;;;21.40;13.60;;;-0.20;99.90;;;;;;5034211;28;20270;-81
2023/01/25 02:08:44;;;;;;;20.70;12.70;;;-0.30;99.90;;;;;;5016121;28;20960;-81
2023/01/25 02:11:12;;;;;;;20.33;12.97;;;-0.30;99.90;;;;;;5036695;28;20826;-81
2023/01/25 02:13:39;;;;;;;21.83;14.63;;;-0.40;99.90;;;;;;5039913;28;20296;-81
2023/01/25 02:16:11;;;;;;;24.23;13.60;;;-0.40;99.90;;;;;;5018223;28;20243;-82
2023/01/25 02:18:38;;;;;;;17.70;11.37;;;-0.50;99.90;;;;;;5034902;28;20694;-83
2023/01/25 02:21:07;;;;;;;19.07;11.73;;;-0.50;99.90;;;;;;5037406;28;20287;-83
2023/01/25 02:23:39;;;;;;;18.20;11.27;;;-0.50;99.90;;;;;;5036019;28;20235;-82
2023/01/25 02:26:08;;;;;;;17.63;11.77;;;-0.60;99.90;;;;;;5034522;28;20216;-83
2023/01/25 02:28:38;;;;;;;20.90;11.83;;;-0.60;99.90;;;;;;5035472;28;20223;-82
2023/01/25 02:31:05;;;;;;;18.97;11.73;;;-0.70;99.90;;;;;;5035216;28;20276;-82
2023/01/25 02:33:31;;;;;;;17.53;10.77;;;-0.70;99.90;;;;;;5039578;28;20227;-82
2023/01/25 02:36:14;;;;;;;19.17;11.50;;;-0.80;99.90;;;;;;5039470;28;20232;-82
2023/01/25 02:38:49;;;;;;;17.53;10.83;;;-0.80;99.90;;;;;;5034793;28;20217;-83
2023/01/25 02:41:23;;;;;;;19.00;11.67;;;-0.80;99.90;;;;;;5021674;28;20651;-83
2023/01/25 02:43:50;;;;;;;19.90;11.27;;;-0.80;99.90;;;;;;5036593;28;20293;-83
2023/01/25 02:46:24;;;;;;;19.83;11.67;;;-0.70;99.90;;;;;;5021742;28;20219;-82
2023/01/25 02:48:53;;;;;;;18.20;11.47;;;-0.70;99.90;;;;;;5038557;28;20928;-83
2023/01/25 02:51:21;;;;;;;19.00;11.67;;;-0.70;99.90;;;;;;5023535;28;20231;-82
2023/01/25 02:53:48;;;;;;;18.63;10.97;;;-0.70;99.90;;;;;;5020103;28;20478;-82
2023/01/25 02:56:15;;;;;;;20.53;11.77;;;-0.70;99.90;;;;;;5041995;28;21018;-81
2023/01/25 02:58:44;;;;;;;21.67;11.33;;;-0.70;99.90;;;;;;5020825;28;20774;-81
2023/01/25 03:01:13;;;;;;;21.77;12.80;;;-0.70;99.90;;;;;;5038807;28;20224;-80
2023/01/25 03:03:41;;;;;;;21.60;12.00;;;-0.70;99.90;;;;;;5041559;28;20232;-82
2023/01/25 03:06:08;;;;;;;20.43;12.03;;;-0.70;99.90;;;;;;5032172;28;20267;-83
2023/01/25 03:08:36;;;;;;;22.13;12.93;;;-0.70;99.90;;;;;;5022958;28;20231;-84
2023/01/25 03:11:06;;;;;;;20.13;11.83;;;-0.70;99.90;;;;;;5017780;28;20271;-83
2023/01/25 03:13:35;;;;;;;19.40;12.17;;;-0.70;99.90;;;;;;5034179;28;20313;-83
2023/01/25 03:16:05;;;;;;;19.60;11.67;;;-0.70;99.90;;;;;;5033768;28;20215;-82
2023/01/25 03:18:32;;;;;;;23.03;12.77;;;-0.60;99.90;;;;;;5039820;28;20638;-84
2023/01/25 03:21:05;;;;;;;22.17;12.57;;;-0.70;99.90;;;;;;5038938;28;20212;-83
2023/01/25 03:23:33;;;;;;;24.33;12.77;;;-0.70;99.90;;;;;;5037197;28;20527;-83
2023/01/25 03:26:08;;;;;;;24.73;13.70;;;-0.70;99.90;;;;;;5014312;28;20225;-83
2023/01/25 03:28:37;;;;;;;25.60;13.13;;;-0.70;99.90;;;;;;5034908;28;20311;-84
2023/01/25 03:31:06;;;;;;;21.30;12.30;;;-0.70;99.90;;;;;;5039119;28;20216;-82
2023/01/25 03:33:33;;;;;;;24.93;13.80;;;-0.70;99.90;;;;;;5041890;28;20213;-82
2023/01/25 03:36:00;;;;;;;22.00;13.00;;;-0.70;99.90;;;;;;5027648;28;20240;-83
2023/01/25 03:38:28;;;;;;;23.53;13.23;;;-0.60;99.90;;;;;;5035657;28;20309;-82
2023/01/25 03:40:58;;;;;;;24.37;12.93;;;-0.70;99.90;;;;;;5024978;28;21125;-83
2023/01/25 03:43:25;;;;;;;24.50;12.87;;;-0.60;99.90;;;;;;5042505;28;20705;-84
2023/01/25 03:45:53;;;;;;;23.07;12.30;;;-0.60;99.90;;;;;;5041924;28;20231;-82
2023/01/25 03:48:22;;;;;;;25.03;13.53;;;-0.60;99.90;;;;;;5033014;28;20231;-82
2023/01/25 03:50:50;;;;;;;26.60;12.87;;;-0.70;99.90;;;;;;5038262;28;20228;-83
2023/01/25 03:53:26;;;;;;;20.27;12.40;;;-0.70;99.90;;;;;;5038797;28;20224;-82
2023/01/25 03:55:56;;;;;;;25.83;13.30;;;-0.70;99.90;;;;;;5037447;28;20222;-82
2023/01/25 03:58:23;;;;;;;23.30;12.63;;;-0.80;99.90;;;;;;5019175;28;20230;-82
2023/01/25 04:00:51;;;;;;;25.87;14.23;;;-0.90;99.90;;;;;;5035094;28;20232;-83
2023/01/25 04:03:20;;;;;;;25.13;12.70;;;-0.90;99.90;;;;;;5036273;28;20711;-82
2023/01/25 04:05:49;;;;;;;24.97;13.23;;;-1.00;99.90;;;;;;5037873;28;20624;-82
2023/01/25 04:08:17;;;;;;;23.90;13.43;;;-1.00;99.90;;;;;;5022876;28;21341;-81
2023/01/25 04:10:44;;;;;;;22.90;13.37;;;-1.00;99.90;;;;;;5039963;28;20906;-81
2023/01/25 04:13:11;;;;;;;23.50;13.27;;;-1.10;99.90;;;;;;5024183;28;20638;-83
2023/01/25 04:15:38;;;;;;;24.90;14.60;;;-1.10;99.90;;;;;;5025303;28;20876;-82
2023/01/25 04:18:14;;;;;;;21.97;13.97;;;-1.20;99.90;;;;;;5020649;28;20264;-83
2023/01/25 04:20:41;;;;;;;24.57;13.30;;;-1.30;99.90;;;;;;5040445;28;20923;-81
2023/01/25 04:23:09;;;;;;;28.10;14.20;;;-1.30;99.90;;;;;;5024531;28;20637;-82
2023/01/25 04:25:38;;;;;;;25.53;14.57;;;-1.30;99.90;;;;;;5024804;28;20216;-82
2023/01/25 04:28:11;;;;;;;23.00;13.57;;;-1.30;99.90;;;;;;5038310;28;20252;-81
2023/01/25 04:30:38;;;;;;;23.13;13.43;;;-1.30;99.90;;;;;;5035790;28;20235;-82
2023/01/25 04:33:05;;;;;;;24.43;14.50;;;-1.30;99.90;;;;;;5038522;28;20227;-82
2023/01/25 04:35:32;;;;;;;27.97;14.33;;;-1.30;99.90;;;;;;5023330;28;20243;-83
2023/01/25 04:38:01;;;;;;;22.83;13.47;;;-1.30;99.90;;;;;;5024700;28;20595;-85
2023/01/25 04:40:37;;;;;;;23.43;13.73;;;-1.30;99.90;;;;;;5037859;28;20849;-82
2023/01/25 04:43:05;;;;;;;22.33;14.27;;;-1.20;99.90;;;;;;5039272;28;20710;-83
2023/01/25 04:45:32;;;;;;;24.87;13.70;;;-1.20;99.90;;;;;;5035809;28;20216;-83
2023/01/25 04:48:08;;;;;;;22.03;13.40;;;-1.20;99.90;;;;;;5023442;28;20229;-81
2023/01/25 04:50:38;;;;;;;19.97;13.20;;;-1.20;99.90;;;;;;5037403;28;20258;-81
2023/01/25 04:53:07;;;;;;;21.73;13.20;;;-1.30;99.90;;;;;;5024653;28;20216;-81
2023/01/25 04:55:34;;;;;;;22.77;13.87;;;-1.40;99.90;;;;;;5041354;28;20231;-83
2023/01/25 04:58:05;;;;;;;20.73;13.23;;;-1.40;99.90;;;;;;5038311;28;20227;-82
2023/01/25 05:00:33;;;;;;;20.37;13.53;;;-1.40;99.90;;;;;;5024830;28;20471;-82
2023/01/25 05:03:03;;;;;;;21.83;13.87;;;-1.40;99.90;;;;;;5039623;28;20273;-81
2023/01/25 05:05:30;;;;;;;21.10;13.57;;;-1.40;99.90;;;;;;5022546;28;20221;-81
2023/01/25 05:07:59;;;;;;;21.40;14.10;;;-1.40;99.90;;;;;;5024090;28;20780;-82
2023/01/25 05:10:27;;;;;;;20.77;13.77;;;-1.40;99.90;;;;;;5034892;28;20230;-82
2023/01/25 05:13:14;;;;;;;17.23;12.07;;;-1.40;99.90;;;;;;5040998;28;20219;-81
2023/01/25 05:15:41;;;;;;;24.20;14.53;;;-1.30;99.90;;;;;;5037134;28;20593;-81
2023/01/25 05:18:08;;;;;;;19.90;13.27;;;-1.40;99.90;;;;;;5017760;28;20291;-81
2023/01/25 05:20:38;;;;;;;21.80;14.27;;;-1.40;99.90;;;;;;5040699;28;20219;-81
2023/01/25 05:23:06;;;;;;;19.53;13.60;;;-1.40;99.90;;;;;;5035479;28;20219;-83
2023/01/25 05:28:27;;;;;;;18.03;12.50;;;-1.50;99.90;;;;;;5035131;28;20917;-82
2023/01/25 05:31:16;;;;;;;19.73;14.00;;;-1.40;99.90;;;;;;5039333;28;20222;-81
2023/01/25 05:33:43;;;;;;;19.93;13.37;;;-1.40;99.90;;;;;;5041352;28;20216;-80
2023/01/25 05:36:10;;;;;;;21.67;13.80;;;-1.30;99.90;;;;;;5026011;28;20324;-82
2023/01/25 05:38:38;;;;;;;19.10;13.00;;;-1.30;99.90;;;;;;5023157;28;20940;-81
2023/01/25 05:41:05;;;;;;;19.50;12.43;;;-1.20;99.90;;;;;;5039682;28;20224;-82
2023/01/25 05:43:33;;;;;;;16.93;11.83;;;-1.20;99.90;;;;;;5039008;28;20261;-81
2023/01/25 05:46:01;;;;;;;27.73;13.30;;;-1.20;99.90;;;;;;5034937;28;20224;-79
2023/01/25 05:48:28;;;;;;;22.47;13.63;;;-1.20;99.90;;;;;;5036700;28;20247;-80
2023/01/25 05:50:57;;;;;;;22.10;13.20;;;-1.10;99.90;;;;;;5024608;28;21034;-79
2023/01/25 05:53:25;;;;;;;26.97;12.97;;;-1.10;99.90;;;;;;5039459;28;20238;-79
2023/01/25 05:55:53;;;;;;;58.97;15.53;;;-1.10;99.90;;;;;;5035221;28;20838;-79
2023/01/25 05:58:20;;;;;;;19.63;12.13;;;-1.00;99.90;;;;;;5033921;28;20284;-79
2023/01/25 06:00:48;;;;;;;15.43;11.87;;;-1.00;99.90;;;;;;5039811;28;20748;-79
2023/01/25 06:03:26;;;;;;;14.63;11.57;;;-1.00;99.90;;;;;;5034069;28;20276;-79
2023/01/25 06:05:55;;;;;;;15.80;11.10;;;-1.00;99.90;;;;;;5022388;28;20227;-79
2023/01/25 06:08:22;;;;;;;14.37;11.23;;;-1.10;99.90;;;;;;5034505;28;20226;-79
2023/01/25 06:10:51;;;;;;;16.80;11.30;;;-1.10;99.90;;;;;;5032561;28;20227;-79
2023/01/25 06:13:18;;;;;;;17.30;11.77;;;-1.10;99.90;;;;;;5040357;28;20674;-79
2023/01/25 06:15:53;;;;;;;16.73;12.30;;;-1.10;99.90;;;;;;5021588;28;20303;-80
2023/01/25 06:18:46;;;;;;;16.37;11.87;;;-1.20;99.90;;;;;;5036015;28;20235;-79
2023/01/25 06:21:22;;;;;;;16.23;11.93;;;-1.20;99.90;;;;;;5030560;28;20233;-79
2023/01/25 06:23:49;;;;;;;14.37;11.37;;;-1.20;99.90;;;;;;5032704;28;20219;-79
2023/01/25 06:26:16;;;;;;;16.57;12.50;;;-1.20;99.90;;;;;;5032293;28;20250;-79
2023/01/25 06:28:43;;;;;;;24.73;12.93;;;-1.20;99.90;;;;;;5033770;28;20248;-79
2023/01/25 06:31:13;;;;;;;21.27;13.73;;;-1.20;99.90;;;;;;5033152;28;20218;-79
2023/01/25 06:33:42;;;;;;;17.93;12.53;;;-1.20;99.90;;;;;;5030453;28;20239;-79
2023/01/25 06:36:12;;;;;;;19.03;12.83;;;-1.10;99.90;;;;;;5019821;28;20299;-80
2023/01/25 06:38:39;;;;;;;19.27;12.73;;;-1.10;99.90;;;;;;5036203;28;20233;-80
2023/01/25 06:41:07;;;;;;;16.60;12.43;;;-1.10;99.90;;;;;;5043068;28;20315;-80
2023/01/25 06:43:35;;;;;;;17.83;12.47;;;-1.10;99.90;;;;;;5036474;28;20707;-80
2023/01/25 06:46:03;;;;;;;20.47;12.53;;;-1.10;99.90;;;;;;5032923;28;20237;-80
2023/01/25 06:48:32;;;;;;;18.03;13.03;;;-1.10;99.90;;;;;;5041584;28;20705;-79
2023/01/25 06:51:01;;;;;;;16.93;12.40;;;-1.10;99.90;;;;;;5033890;28;20220;-80
2023/01/25 06:53:29;;;;;;;20.60;13.77;;;-1.10;99.90;;;;;;5020589;28;20249;-80
2023/01/25 06:56:00;;;;;;;18.90;12.73;;;-1.10;99.90;;;;;;5037761;28;20312;-80
2023/01/25 06:58:28;;;;;;;19.70;13.63;;;-1.10;99.90;;;;;;5040457;28;20230;-80
2023/01/25 07:01:00;;;;;;;19.83;13.37;;;-1.10;99.90;;;;;;5035987;28;20802;-80
2023/01/25 07:03:26;;;;;;;21.97;14.17;;;-1.10;99.90;;;;;;5043917;28;20222;-80
2023/01/25 07:05:59;;;;;;;20.67;14.20;;;-1.00;99.90;;;;;;5033422;28;20228;-80
2023/01/25 07:08:25;;;;;;;22.67;14.03;;;-1.00;99.90;;;;;;5047247;28;20231;-80
2023/01/25 07:10:56;;;;;;;20.80;13.53;;;-1.00;99.90;;;;;;5044073;28;20224;-80
2023/01/25 07:13:28;;;;;;;20.43;14.47;;;-1.00;99.90;;;;;;5044313;28;20227;-80
2023/01/25 07:15:55;;;;;;;21.23;15.13;;;-1.10;99.90;;;;;;5044137;28;20254;-80
2023/01/25 07:18:22;;;;;;;21.70;15.47;;;-1.10;99.90;;;;;;5043849;28;20620;-79
2023/01/25 07:20:49;;;;;;;23.00;15.73;;;-1.10;99.90;;;;;;5049975;28;20224;-80
2023/01/25 07:23:17;;;;;;;22.40;15.73;;;-1.10;99.90;;;;;;5046323;28;20220;-80
2023/01/25 07:25:45;;;;;;;24.23;16.20;;;-1.00;99.90;;;;;;5042065;28;20238;-80
2023/01/25 07:28:12;;;;;;;24.40;16.07;;;-1.00;99.90;;;;;;5042562;28;20997;-80
2023/01/25 07:30:40;;;;;;;24.10;16.40;;;-1.00;99.90;;;;;;5048366;28;20242;-80
2023/01/25 07:33:06;;;;;;;24.53;17.00;;;-1.10;99.90;;;;;;5044712;28;20903;-80
2023/01/25 07:35:33;;;;;;;25.63;17.23;;;-1.10;99.90;;;;;;5048381;28;20227;-80
2023/01/25 07:38:00;;;;;;;23.60;16.10;;;-1.10;99.90;;;;;;5041022;28;20262;-80
2023/01/25 07:40:28;;;;;;;26.53;17.73;;;-1.10;99.90;;;;;;5046833;28;20634;-81
2023/01/25 07:42:55;;;;;;;23.73;16.30;;;-1.00;99.90;;;;;;5044732;28;20285;-80
2023/01/25 07:45:28;;;;;;;24.00;15.67;;;-1.00;99.90;;;;;;5055523;28;20714;-80
2023/01/25 07:47:56;;;;;;;25.43;16.57;;;-1.00;99.90;;;;;;5043158;28;20224;-80
2023/01/25 07:50:22;;;;;;;24.77;16.93;;;-1.00;99.90;;;;;;5044507;28;20681;-80
2023/01/25 07:52:49;;;;;;;24.20;15.77;;;-1.00;99.90;;;;;;5042136;28;20306;-80
2023/01/25 07:55:16;;;;;;;26.73;16.53;;;-1.00;99.90;;;;;;5025568;28;20216;-79
2023/01/25 07:57:44;;;;;;;24.50;15.73;;;-1.10;99.90;;;;;;5041033;28;20757;-80
2023/01/25 08:00:13;;;;;;;25.47;15.70;;;-1.10;99.90;;;;;;5040057;28;20229;-80
2023/01/25 08:02:40;;;;;;;22.70;15.20;;;-1.10;99.90;;;;;;5041340;28;20244;-80
2023/01/25 08:05:08;;;;;;;24.97;16.50;;;-1.10;99.90;;;;;;5039658;28;20320;-80
2023/01/25 08:07:34;;;;;;;26.50;17.67;;;-1.10;99.90;;;;;;5018169;28;20448;-81
2023/01/25 08:10:02;;;;;;;25.87;17.23;;;-1.00;99.90;;;;;;5043577;28;20247;-81
2023/01/25 08:12:29;;;;;;;28.70;18.43;;;-1.00;99.90;;;;;;5043200;28;20232;-81
2023/01/25 08:14:57;;;;;;;24.33;16.80;;;-1.00;99.90;;;;;;5025203;28;20893;-81
2023/01/25 08:17:30;;;;;;;26.90;17.37;;;-1.00;99.90;;;;;;5036673;28;20250;-81
2023/01/25 08:20:03;;;;;;;27.83;16.43;;;-1.00;99.90;;;;;;5045376;28;20221;-81
2023/01/25 08:22:30;;;;;;;27.63;17.33;;;-0.90;99.90;;;;;;5041625;28;20251;-81
2023/01/25 08:24:57;;;;;;;27.53;17.23;;;-0.80;99.90;;;;;;5044119;28;20248;-81
2023/01/25 08:27:24;;;;;;;26.97;17.63;;;-0.80;99.90;;;;;;5040468;28;20232;-81
2023/01/25 08:29:52;;;;;;;22.83;16.03;;;-0.70;99.90;;;;;;5042235;28;20217;-81
2023/01/25 08:32:20;;;;;;;26.67;16.63;;;-0.70;99.90;;;;;;5029543;28;20231;-81
2023/01/25 08:34:47;;;;;;;29.77;16.83;;;-0.70;99.90;;;;;;5038599;28;20224;-80
2023/01/25 08:37:15;;;;;;;22.60;15.60;;;-0.70;99.90;;;;;;5020939;28;20235;-80
2023/01/25 08:39:42;;;;;;;24.37;17.03;;;-0.70;99.90;;;;;;5042360;28;20371;-79
2023/01/25 08:42:08;;;;;;;24.80;16.60;;;-0.70;99.90;;;;;;5042355;28;20228;-80
2023/01/25 08:44:35;;;;;;;25.50;17.50;;;-0.60;99.90;;;;;;5046265;28;20221;-81
2023/01/25 08:47:02;;;;;;;22.63;15.23;;;-0.60;99.90;;;;;;5024660;28;20220;-80
2023/01/25 08:49:33;;;;;;;23.37;16.67;;;-0.60;99.90;;;;;;5044777;28;20225;-81
2023/01/25 08:52:00;;;;;;;23.47;16.33;;;-0.60;99.90;;;;;;5041584;28;21948;-82
2023/01/25 08:54:27;;;;;;;24.33;16.57;;;-0.60;99.90;;;;;;5039397;28;20264;-81
2023/01/25 08:56:54;;;;;;;24.03;15.97;;;-0.50;99.90;;;;;;5041216;28;20227;-81
2023/01/25 08:59:22;;;;;;;23.50;16.83;;;-0.50;99.90;;;;;;5025712;28;20240;-81
2023/01/25 09:01:49;;;;;;;24.50;17.03;;;-0.50;99.90;;;;;;5025056;28;20235;-81
2023/01/25 09:04:19;;;;;;;25.40;16.57;;;-0.50;99.90;;;;;;5024251;28;20227;-81
2023/01/25 09:06:47;;;;;;;27.83;17.90;;;-0.40;99.90;;;;;;5025438;28;20713;-81
2023/01/25 09:09:18;;;;;;;26.10;16.30;;;-0.40;99.90;;;;;;5040610;28;20229;-81
2023/01/25 09:11:54;;;;;;;;;;;;;;;;;;;;;
2023/01/25 09:14:21;;;;;;;25.50;17.47;;;-0.40;99.90;;;;;;5046093;28;20229;-81
2023/01/25 09:16:48;;;;;;;26.10;17.40;;;-0.40;99.90;;;;;;5042963;28;20629;-81
2023/01/25 09:19:15;;;;;;;25.03;17.57;;;-0.30;99.90;;;;;;5034937;28;20225;-81
2023/01/25 09:21:42;;;;;;;26.83;19.20;;;-0.30;99.90;;;;;;5040185;28;20307;-81
2023/01/25 09:24:10;;;;;;;25.93;19.20;;;-0.30;99.90;;;;;;5023936;28;20391;-81
2023/01/25 09:26:39;;;;;;;26.13;18.70;;;-0.30;99.90;;;;;;5025054;28;20231;-81
2023/01/25 09:29:07;;;;;;;25.37;17.97;;;-0.30;99.90;;;;;;5040577;28;20237;-81
2023/01/25 09:31:34;;;;;;;27.43;18.53;;;-0.30;99.90;;;;;;5025863;28;20312;-79
2023/01/25 09:34:21;;;;;;;27.23;18.77;;;-0.30;99.90;;;;;;5042863;28;20702;-79
2023/01/25 09:36:47;;;;;;;24.97;18.47;;;-0.20;99.90;;;;;;5023699;28;20287;-81
2023/01/25 09:39:15;;;;;;;28.90;19.97;;;-0.20;99.90;;;;;;5034074;28;20274;-81
2023/01/25 09:42:11;;;;;;;31.17;19.90;;;-0.20;99.90;;;;;;5040264;28;20311;-83
2023/01/25 09:44:52;;;;;;;29.20;19.60;;;-0.20;99.90;;;;;;5040379;28;20271;-82
2023/01/25 09:47:26;;;;;;;29.17;19.37;;;-0.10;99.90;;;;;;5034813;28;20714;-82
2023/01/25 09:50:17;;;;;;;27.97;19.27;;;-0.10;99.90;;;;;;5038389;28;20842;-82
2023/01/25 09:53:04;;;;;;;29.97;19.93;;;-0.10;99.90;;;;;;5039823;28;20246;-82
2023/01/25 09:55:33;;;;;;;26.60;18.77;;;-0.10;99.90;;;;;;5026252;28;20231;-82
2023/01/25 09:58:05;;;;;;;28.73;18.80;;;-0.10;99.90;;;;;;5042580;28;20251;-83
2023/01/25 10:00:34;;;;;;;29.80;18.83;;;-0.10;99.90;;;;;;5029846;28;20227;-82
2023/01/25 10:03:05;;;;;;;30.43;18.67;;;-0.10;99.90;;;;;;5031737;28;20758;-81
2023/01/25 10:05:44;;;;;;;28.13;19.70;;;-0.10;99.90;;;;;;5016347;28;20797;-83
2023/01/25 10:08:22;;;;;;;26.63;18.67;;;-0.10;99.90;;;;;;5033437;28;20935;-83
2023/01/25 10:10:55;;;;;;;29.53;20.27;;;-0.10;99.90;;;;;;5035883;28;20473;-82
2023/01/25 10:13:24;;;;;;;29.03;19.60;;;-0.10;99.90;;;;;;5042233;28;20221;-83
2023/01/25 10:15:55;;;;;;;31.77;21.07;;;-0.10;99.90;;;;;;5042455;28;20312;-82
2023/01/25 10:18:33;;;;;;;31.23;20.93;;;0.00;99.90;;;;;;5036347;28;20646;-82
2023/01/25 10:21:05;;;;;;;31.23;21.17;;;0.00;99.90;;;;;;5040573;28;20214;-82
2023/01/25 10:23:56;;;;;;;31.60;21.53;;;0.00;99.90;;;;;;5036182;28;20320;-81
2023/01/25 10:26:28;;;;;;;29.40;20.13;;;0.00;99.90;;;;;;5036746;28;20305;-81
2023/01/25 10:29:02;;;;;;;32.20;21.00;;;0.10;99.90;;;;;;5042789;28;20318;-81
2023/01/25 10:31:36;;;;;;;30.13;20.00;;;0.10;99.90;;;;;;5040003;28;20243;-81
2023/01/25 10:34:16;;;;;;;29.27;19.93;;;0.10;99.90;;;;;;5042223;28;20230;-81
2023/01/25 10:36:46;;;;;;;30.47;20.03;;;0.10;99.90;;;;;;5044066;28;20230;-81
2023/01/25 10:39:12;;;;;;;30.07;20.77;;;0.10;99.90;;;;;;5040171;28;20219;-81
2023/01/25 10:41:47;;;;;;;36.27;23.57;;;0.10;99.90;;;;;;5027149;28;20328;-81
2023/01/25 10:44:24;;;;;;;33.77;22.10;;;0.10;99.90;;;;;;5037929;28;21109;-81
2023/01/25 10:46:57;;;;;;;32.57;22.00;;;0.10;99.90;;;;;;5043335;28;20326;-81
2023/01/25 10:49:27;;;;;;;33.33;21.83;;;0.10;99.90;;;;;;5040692;28;20231;-81
2023/01/25 10:51:54;;;;;;;34.30;22.70;;;0.10;99.90;;;;;;5025361;28;20316;-81
2023/01/25 10:54:22;;;;;;;33.60;22.27;;;0.10;99.90;;;;;;5026759;28;20227;-81
2023/01/25 10:56:51;;;;;;;33.07;22.40;;;0.10;99.90;;;;;;5042261;28;20229;-80
2023/01/25 10:59:23;;;;;;;33.47;22.67;;;0.10;99.90;;;;;;5040581;28;20314;-81
2023/01/25 11:01:52;;;;;;;32.67;22.53;;;0.10;99.90;;;;;;5041897;28;20280;-82
2023/01/25 11:04:28;;;;;;;34.23;23.27;;;0.10;99.90;;;;;;5043453;28;20224;-82
2023/01/25 11:06:56;;;;;;;39.47;23.77;;;0.20;99.90;;;;;;5026596;28;20232;-81
2023/01/25 11:09:34;;;;;;;37.50;24.13;;;0.20;99.90;;;;;;5036670;28;20710;-81
2023/01/25 11:12:06;;;;;;;34.03;22.63;;;0.20;99.90;;;;;;5050344;28;20778;-82
2023/01/25 11:14:36;;;;;;;38.13;23.47;;;0.30;99.90;;;;;;5044199;28;20743;-81
2023/01/25 11:17:05;;;;;;;39.57;25.73;;;0.30;99.90;;;;;;5043903;28;20339;-81
2023/01/25 11:19:34;;;;;;;34.50;23.60;;;0.30;99.90;;;;;;5025419;28;20649;-82
2023/01/25 11:22:03;;;;;;;36.37;25.47;;;0.30;99.90;;;;;;5043176;28;20227;-81
2023/01/25 11:24:33;;;;;;;38.83;24.07;;;0.30;99.90;;;;;;5038157;28;20312;-81
2023/01/25 11:27:17;;;;;;;39.30;26.03;;;0.30;99.90;;;;;;5042734;28;21530;-81
2023/01/25 11:29:45;;;;;;;38.07;25.13;;;0.30;99.90;;;;;;5039387;28;20258;-81
2023/01/25 11:32:22;;;;;;;37.57;24.67;;;0.30;99.90;;;;;;5015442;28;20229;-81
2023/01/25 11:34:53;;;;;;;37.33;24.80;;;0.30;99.90;;;;;;5040760;28;20728;-82
2023/01/25 11:37:32;;;;;;;41.70;25.37;;;0.30;99.90;;;;;;5025127;28;20227;-83
2023/01/25 11:40:11;;;;;;;40.60;26.70;;;0.30;99.90;;;;;;5022872;28;20219;-82
2023/01/25 11:42:49;;;;;;;37.37;24.90;;;0.30;99.90;;;;;;5005363;28;20232;-82
2023/01/25 11:45:49;;;;;;;37.77;24.30;;;0.30;99.90;;;;;;5041279;28;20219;-82
2023/01/25 11:48:42;;;;;;;39.07;25.43;;;0.40;99.90;;;;;;5039657;28;20224;-82
2023/01/25 11:51:18;;;;;;;37.80;24.57;;;0.30;99.90;;;;;;5035764;28;20223;-82
2023/01/25 11:54:08;;;;;;;39.40;24.83;;;0.40;99.90;;;;;;5041630;28;20219;-83
2023/01/25 11:56:49;;;;;;;40.30;25.90;;;0.40;99.90;;;;;;5038649;28;20213;-82
2023/01/25 11:59:34;;;;;;;39.03;24.50;;;0.40;99.90;;;;;;5038120;28;20223;-83
2023/01/25 12:02:19;;;;;;;43.70;26.90;;;0.40;99.90;;;;;;5042814;28;20727;-82
2023/01/25 12:05:21;;;;;;;45.00;27.47;;;0.40;99.90;;;;;;5041035;28;20684;-82
2023/01/25 12:07:55;;;;;;;38.53;24.70;;;0.40;99.90;;;;;;5040314;28;20219;-82
2023/01/25 12:10:30;;;;;;;41.03;25.83;;;0.40;99.90;;;;;;5043600;28;20805;-82
2023/01/25 12:13:02;;;;;;;46.00;26.97;;;0.40;99.90;;;;;;5040155;28;20315;-84
2023/01/25 12:16:00;;;;;;;38.83;25.60;;;0.40;99.90;;;;;;5048750;28;20348;-82
2023/01/25 12:18:54;;;;;;;39.80;26.53;;;0.40;99.90;;;;;;5041922;28;20220;-82
2023/01/25 12:21:31;;;;;;;42.63;26.37;;;0.50;99.90;;;;;;5044010;28;20388;-83
2023/01/25 12:24:13;;;;;;;39.77;24.63;;;0.50;99.90;;;;;;5026515;28;20227;-81
2023/01/25 12:26:48;;;;;;;40.53;25.63;;;0.50;99.90;;;;;;5043421;28;20233;-83
2023/01/25 12:29:24;;;;;;;39.17;25.63;;;0.40;99.90;;;;;;5042942;28;20649;-82
2023/01/25 12:31:56;;;;;;;39.60;26.30;;;0.40;99.90;;;;;;5045384;28;20377;-82
2023/01/25 12:34:31;;;;;;;41.90;26.20;;;0.50;99.90;;;;;;5043058;28;20231;-82
2023/01/25 12:37:04;;;;;;;37.67;25.07;;;0.40;99.90;;;;;;5044357;28;20219;-83
2023/01/25 12:39:34;;;;;;;40.07;25.07;;;0.50;99.90;;;;;;5044286;28;20729;-82
2023/01/25 12:42:06;;;;;;;42.50;26.10;;;0.50;99.90;;;;;;5051128;28;20235;-83
2023/01/25 12:44:37;;;;;;;35.93;23.87;;;0.50;99.90;;;;;;5048922;28;20316;-84
2023/01/25 12:47:13;;;;;;;40.60;25.10;;;0.50;99.90;;;;;;5039241;28;20279;-82
2023/01/25 12:49:44;;;;;;;36.40;24.53;;;0.50;99.90;;;;;;5041507;28;20227;-83
2023/01/25 12:52:20;;;;;;;33.23;22.67;;;0.50;99.90;;;;;;5048168;28;20227;-82